^^
Meteo Knjazevac Station Historical Data
Daily Summary for February 25, 2021 Units:  Metric    English   Both
Daily Weekly Monthly Yearly Custom
  High: Low: Average:
Temperature: 37.9 °C 17.7 °C 28.3 °C
Dew Point: 25.1 °C 15.1 °C 19.9 °C
Humidity: 85% 34% 63%
Wind Speed: 11.3km/h 0km/h 3.2km/h
Wind Gust: 19.3km/h - -
Wind- - SW
Pressure: 1018.2 hPa 1014.4 hPa -
Precipitation: 0 mm    
Historical Graphs
 
 
Tabular Data for February 25, 2021
Time Temperature Dew Point Pressure Wind Wind Speed Wind Gust Humidity Rainfall Rate (Hourly) solar Conditions
00:00 26.5 °C 19.4 °C 1017.5 hPa WSW 3.2 km/h 4.8 km/h 65% 0 mm 0 W/m2
00:10 26 °C 19.4 °C 1017.5 hPa West 3.2 km/h 8 km/h 67% 0 mm 0 W/m2
00:20 25.7 °C 19.3 °C 1017.5 hPa West 1.6 km/h 6.4 km/h 68% 0 mm 0 W/m2
00:30 25.3 °C 18.9 °C 1017.8 hPa NNW 1.6 km/h 6.4 km/h 68% 0 mm 0 W/m2
00:40 24.9 °C 19.1 °C 1017.8 hPa West 3.2 km/h 4.8 km/h 70% 0 mm 0 W/m2
00:50 24.4 °C 18.6 °C 1017.8 hPa WNW 3.2 km/h 6.4 km/h 70% 0 mm 0 W/m2
01:00 24 °C 18.6 °C 1017.8 hPa WNW 1.6 km/h 4.8 km/h 72% 0 mm 0 W/m2
01:10 23.6 °C 18.4 °C 1017.8 hPa NW 3.2 km/h 4.8 km/h 73% 0 mm 0 W/m2
01:20 23.1 °C 18.2 °C 1017.8 hPa Calm   4.8 km/h 74% 0 mm 0 W/m2
01:30 22.8 °C 18.1 °C 1017.8 hPa NNW 1.6 km/h 3.2 km/h 75% 0 mm 0 W/m2
01:40 22.4 °C 17.7 °C 1017.8 hPa NNW 1.6 km/h 3.2 km/h 75% 0 mm 0 W/m2
01:50 22.2 °C 17.6 °C 1017.8 hPa NNW 1.6 km/h 6.4 km/h 75% 0 mm 0 W/m2
02:00 21.7 °C 17.1 °C 1017.8 hPa WSW 1.6 km/h 4.8 km/h 75% 0 mm 0 W/m2
02:10 21.1 °C 16.5 °C 1017.8 hPa West 8 km/h 9.7 km/h 75% 0 mm 0 W/m2
02:20 20.8 °C 16.2 °C 1017.8 hPa WNW 4.8 km/h 9.7 km/h 75% 0 mm 0 W/m2
02:30 20.6 °C 16.6 °C 1017.8 hPa WNW 1.6 km/h 4.8 km/h 78% 0 mm 0 W/m2
02:40 20.3 °C 16.3 °C 1017.8 hPa WSW 3.2 km/h 4.8 km/h 78% 0 mm 0 W/m2
02:50 20 °C 16.2 °C 1017.8 hPa WNW 1.6 km/h 3.2 km/h 79% 0 mm 0 W/m2
03:00 19.7 °C 16.2 °C 1017.8 hPa Calm   4.8 km/h 80% 0 mm 0 W/m2
03:10 19.6 °C 16.1 °C 1017.8 hPa WNW 1.6 km/h 4.8 km/h 80% 0 mm 0 W/m2
03:20 19.4 °C 15.8 °C 1017.8 hPa WNW 1.6 km/h 4.8 km/h 80% 0 mm 0 W/m2
03:30 19.2 °C 15.8 °C 1017.8 hPa WNW 1.6 km/h 3.2 km/h 81% 0 mm 0 W/m2
03:40 19 °C 15.7 °C 1017.8 hPa Calm   4.8 km/h 81% 0 mm 0 W/m2
03:50 18.8 °C 15.4 °C 1017.8 hPa West 1.6 km/h 8 km/h 81% 0 mm 0 W/m2
04:00 18.6 °C 15.3 °C 1017.8 hPa WSW 1.6 km/h 6.4 km/h 81% 0 mm 0 W/m2
04:10 18.3 °C 15.4 °C 1017.8 hPa WNW 1.6 km/h 6.4 km/h 83% 0 mm 0 W/m2
04:20 18.2 °C 15.3 °C 1017.8 hPa WNW 3.2 km/h 6.4 km/h 83% 0 mm 0 W/m2
04:30 18.2 °C 15.3 °C 1017.8 hPa NW 1.6 km/h 8 km/h 83% 0 mm 0 W/m2
04:40 18.2 °C 15.3 °C 1017.8 hPa NW 1.6 km/h 3.2 km/h 83% 0 mm 0 W/m2
04:50 18.1 °C 15.3 °C 1017.8 hPa WNW 3.2 km/h 8 km/h 84% 0 mm 3 W/m2
05:00 18.1 °C 15.2 °C 1017.8 hPa West 1.6 km/h 8 km/h 83% 0 mm 7 W/m2
05:10 17.9 °C 15.2 °C 1017.8 hPa Calm   4.8 km/h 84% 0 mm 14 W/m2
05:20 17.8 °C 15.1 °C 1017.8 hPa Calm   3.2 km/h 84% 0 mm 23 W/m2
05:30 17.7 °C 15.2 °C 1017.8 hPa NW 3.2 km/h 6.4 km/h 85% 0 mm 34 W/m2
05:40 17.8 °C 15.2 °C 1017.8 hPa WNW 1.6 km/h 4.8 km/h 85% 0 mm 45 W/m2
05:50 17.9 °C 15.4 °C 1017.8 hPa WNW 3.2 km/h 6.4 km/h 85% 0 mm 60 W/m2
06:00 18 °C 15.4 °C 1017.8 hPa West 3.2 km/h 6.4 km/h 85% 0 mm 73 W/m2
06:10 18.1 °C 15.6 °C 1018.2 hPa NW 3.2 km/h 6.4 km/h 85% 0 mm 107 W/m2
06:20 18.3 °C 15.7 °C 1018.2 hPa NW 3.2 km/h 4.8 km/h 85% 0 mm 128 W/m2
06:30 18.4 °C 15.8 °C 1017.8 hPa Calm   4.8 km/h 85% 0 mm 152 W/m2
06:40 18.6 °C 15.9 °C 1017.8 hPa NNW 1.6 km/h 4.8 km/h 84% 0 mm 177 W/m2
06:50 18.8 °C 16.2 °C 1017.8 hPa West 3.2 km/h 8 km/h 85% 0 mm 207 W/m2
07:00 19.2 °C 16.4 °C 1017.8 hPa West 3.2 km/h 8 km/h 84% 0 mm 244 W/m2
07:10 19.6 °C 17 °C 1017.8 hPa WSW 3.2 km/h 4.8 km/h 85% 0 mm 278 W/m2
07:20 20.1 °C 17.4 °C 1017.8 hPa NNW 3.2 km/h 6.4 km/h 85% 0 mm 312 W/m2
07:30 20.6 °C 17.8 °C 1017.8 hPa WSW 1.6 km/h 3.2 km/h 84% 0 mm 343 W/m2
07:40 21 °C 18.2 °C 1017.8 hPa West 3.2 km/h 6.4 km/h 84% 0 mm 374 W/m2
07:50 21.6 °C 18.6 °C 1017.8 hPa Calm   4.8 km/h 83% 0 mm 402 W/m2
08:00 22.2 °C 18.8 °C 1017.8 hPa West 3.2 km/h 6.4 km/h 81% 0 mm 437 W/m2
08:10 22.7 °C 18.9 °C 1018.2 hPa WNW 1.6 km/h 6.4 km/h 79% 0 mm 468 W/m2
08:20 23.2 °C 19.6 °C 1017.8 hPa WNW 1.6 km/h 8 km/h 80% 0 mm 505 W/m2
08:30 23.9 °C 19.8 °C 1017.8 hPa Calm   4.8 km/h 78% 0 mm 536 W/m2
08:40 24.6 °C 20.3 °C 1017.8 hPa SE 3.2 km/h 6.4 km/h 77% 0 mm 570 W/m2
08:50 25.6 °C 20.6 °C 1017.8 hPa East 3.2 km/h 11.3 km/h 74% 0 mm 604 W/m2
09:00 26.8 °C 21.1 °C 1017.8 hPa SE 4.8 km/h 12.9 km/h 71% 0 mm 635 W/m2
09:10 27.9 °C 21.5 °C 1017.8 hPa ESE 4.8 km/h 12.9 km/h 68% 0 mm 670 W/m2
09:20 28.8 °C 22.1 °C 1017.8 hPa ESE 3.2 km/h 9.7 km/h 67% 0 mm 697 W/m2
09:30 29.6 °C 22.3 °C 1017.5 hPa SE 3.2 km/h 9.7 km/h 65% 0 mm 727 W/m2
09:40 30.3 °C 22.8 °C 1017.8 hPa SE 4.8 km/h 8 km/h 64% 0 mm 748 W/m2
09:50 31.1 °C 23.4 °C 1017.5 hPa SE 4.8 km/h 11.3 km/h 64% 0 mm 778 W/m2
10:00 31.6 °C 23.4 °C 1017.5 hPa ESE 4.8 km/h 9.7 km/h 62% 0 mm 799 W/m2
10:10 32.1 °C 23.3 °C 1017.5 hPa ESE 1.6 km/h 8 km/h 60% 0 mm 822 W/m2
10:20 32.7 °C 23.9 °C 1017.2 hPa SE 1.6 km/h 11.3 km/h 60% 0 mm 843 W/m2
10:30 33.3 °C 23.6 °C 1017.5 hPa ESE 3.2 km/h 8 km/h 57% 0 mm 858 W/m2
10:40 33.5 °C 22.6 °C 1017.2 hPa SSW 1.6 km/h 11.3 km/h 53% 0 mm 803 W/m2
10:50 34 °C 23.4 °C 1017.2 hPa SSE 4.8 km/h 12.9 km/h 54% 0 mm 869 W/m2
11:00 34.3 °C 24 °C 1017.2 hPa ESE 3.2 km/h 12.9 km/h 55% 0 mm 905 W/m2
11:10 34.7 °C 22.7 °C 1017.2 hPa SW 4.8 km/h 8 km/h 50% 0 mm 927 W/m2
11:20 34.8 °C 22.2 °C 1017.2 hPa SSW 3.2 km/h 8 km/h 48% 0 mm 344 W/m2
11:30 35 °C 22.3 °C 1017.2 hPa SSE 1.6 km/h 8 km/h 48% 0 mm 950 W/m2
11:40 35.4 °C 22.7 °C 1016.8 hPa NNE 1.6 km/h 6.4 km/h 48% 0 mm 959 W/m2
11:50 35.8 °C 23.1 °C 1016.8 hPa NNE 1.6 km/h 9.7 km/h 48% 0 mm 943 W/m2
12:00 36 °C 22.2 °C 1016.8 hPa SE 3.2 km/h 8 km/h 45% 0 mm 660 W/m2
12:10 36 °C 22.2 °C 1016.8 hPa SE 4.8 km/h 9.7 km/h 45% 0 mm 444 W/m2
12:20 36.1 °C 21.9 °C 1016.8 hPa SSW 3.2 km/h 11.3 km/h 44% 0 mm 539 W/m2
12:30 36.2 °C 22.4 °C 1016.5 hPa WSW 1.6 km/h 8 km/h 45% 0 mm 936 W/m2
12:40 36.3 °C 22.1 °C 1016.5 hPa SSE 8 km/h 12.9 km/h 44% 0 mm 589 W/m2
12:50 36.3 °C 22.1 °C 1016.5 hPa South 1.6 km/h 12.9 km/h 44% 0 mm 515 W/m2
13:00 36.4 °C 21.8 °C 1016.5 hPa SW 1.6 km/h 9.7 km/h 43% 0 mm 972 W/m2
13:10 36.6 °C 22.4 °C 1016.5 hPa SE 4.8 km/h 9.7 km/h 44% 0 mm 967 W/m2
13:20 36.7 °C 22.8 °C 1016.1 hPa West 1.6 km/h 9.7 km/h 45% 0 mm 960 W/m2
13:30 36.9 °C 22.7 °C 1016.1 hPa West 1.6 km/h 6.4 km/h 44% 0 mm 952 W/m2
13:40 37.2 °C 22.6 °C 1016.1 hPa SSW 3.2 km/h 9.7 km/h 43% 0 mm 943 W/m2
13:50 37.4 °C 22.7 °C 1016.1 hPa SSW 3.2 km/h 9.7 km/h 43% 0 mm 932 W/m2
14:00 37.5 °C 22.8 °C 1016.1 hPa West 3.2 km/h 6.4 km/h 43% 0 mm 919 W/m2
14:10 37.4 °C 22.3 °C 1015.8 hPa West 3.2 km/h 9.7 km/h 42% 0 mm 676 W/m2
14:20 37.3 °C 22.6 °C 1015.8 hPa WSW 3.2 km/h 9.7 km/h 43% 0 mm 891 W/m2
14:30 37.4 °C 21.5 °C 1015.8 hPa West 9.7 km/h 16.1 km/h 40% 0 mm 874 W/m2
14:40 37.3 °C 21.1 °C 1015.8 hPa WNW 8 km/h 17.7 km/h 39% 0 mm 857 W/m2
14:50 37.5 °C 21.6 °C 1015.8 hPa WNW 3.2 km/h 14.5 km/h 40% 0 mm 838 W/m2
15:00 37.6 °C 21.3 °C 1015.5 hPa West 9.7 km/h 14.5 km/h 39% 0 mm 818 W/m2
15:10 37.7 °C 20.9 °C 1015.5 hPa West 8 km/h 16.1 km/h 38% 0 mm 797 W/m2
15:20 37.8 °C 20.2 °C 1015.5 hPa SW 9.7 km/h 12.9 km/h 36% 0 mm 774 W/m2
15:30 37.8 °C 19.7 °C 1015.5 hPa SW 9.7 km/h 14.5 km/h 35% 0 mm 748 W/m2
15:40 37.7 °C 19.2 °C 1015.5 hPa SW 11.3 km/h 16.1 km/h 34% 0 mm 704 W/m2
15:50 37.6 °C 19.1 °C 1015.5 hPa SW 11.3 km/h 19.3 km/h 34% 0 mm 702 W/m2
16:00 37.5 °C 19 °C 1015.1 hPa SW 11.3 km/h 19.3 km/h 34% 0 mm 674 W/m2
16:10 37.6 °C 19.6 °C 1015.1 hPa WSW 4.8 km/h 16.1 km/h 35% 0 mm 639 W/m2
16:20 37.7 °C 19.6 °C 1015.1 hPa WSW 8 km/h 11.3 km/h 35% 0 mm 613 W/m2
16:30 37.7 °C 20.5 °C 1014.8 hPa WSW 3.2 km/h 11.3 km/h 37% 0 mm 570 W/m2
16:40 37.8 °C 20.2 °C 1014.8 hPa Calm   8 km/h 36% 0 mm 561 W/m2
16:50 37.9 °C 21.1 °C 1014.8 hPa WSW 3.2 km/h 11.3 km/h 38% 0 mm 524 W/m2
17:00 37.7 °C 20.9 °C 1014.8 hPa SW 3.2 km/h 9.7 km/h 38% 0 mm 218 W/m2
17:10 37.5 °C 20.3 °C 1014.8 hPa SW 8 km/h 11.3 km/h 37% 0 mm 475 W/m2
17:20 37.4 °C 21.6 °C 1014.4 hPa SSW 4.8 km/h 11.3 km/h 40% 0 mm 241 W/m2
17:30 36.8 °C 21.1 °C 1014.8 hPa SSW 4.8 km/h 9.7 km/h 40% 0 mm 181 W/m2
17:40 36.4 °C 20.2 °C 1014.4 hPa SW 3.2 km/h 8 km/h 39% 0 mm 142 W/m2
17:50 35.9 °C 22.9 °C 1014.4 hPa SSW 1.6 km/h 6.4 km/h 47% 0 mm 133 W/m2
18:00 35.3 °C 24.2 °C 1014.4 hPa SSE 1.6 km/h 6.4 km/h 53% 0 mm 101 W/m2
18:10 34.5 °C 25.1 °C 1014.4 hPa SW 1.6 km/h 8 km/h 58% 0 mm 98 W/m2
18:20 33.8 °C 24.7 °C 1014.8 hPa WSW 1.6 km/h 6.4 km/h 59% 0 mm 101 W/m2
18:30 33.2 °C 24.4 °C 1014.8 hPa WSW 3.2 km/h 6.4 km/h 60% 0 mm 127 W/m2
18:40 32.8 °C 24.6 °C 1014.8 hPa SSW 1.6 km/h 6.4 km/h 62% 0 mm 104 W/m2
18:50 32.6 °C 24.1 °C 1014.8 hPa SW 1.6 km/h 4.8 km/h 61% 0 mm 89 W/m2
19:00 32.2 °C 24 °C 1015.1 hPa SSW 1.6 km/h 6.4 km/h 62% 0 mm 51 W/m2
19:10 31.6 °C 23.4 °C 1015.1 hPa SSE 3.2 km/h 6.4 km/h 62% 0 mm 36 W/m2
19:20 31.2 °C 23.3 °C 1015.1 hPa SE 1.6 km/h 4.8 km/h 63% 0 mm 16 W/m2
19:30 30.9 °C 23.3 °C 1015.1 hPa NE 1.6 km/h 6.4 km/h 64% 0 mm 9 W/m2
19:40 30.6 °C 23.3 °C 1015.1 hPa NNE 3.2 km/h 9.7 km/h 65% 0 mm 7 W/m2
19:50 30.4 °C 23.3 °C 1015.5 hPa SSW 3.2 km/h 4.8 km/h 66% 0 mm 6 W/m2
20:00 30.1 °C 23.3 °C 1015.5 hPa NW 1.6 km/h 4.8 km/h 67% 0 mm 4 W/m2
20:10 29.7 °C 23.2 °C 1015.8 hPa NNW 4.8 km/h 16.1 km/h 68% 0 mm 3 W/m2
20:20 29.7 °C 22.4 °C 1015.8 hPa West 4.8 km/h 12.9 km/h 65% 0 mm 0 W/m2
20:30 29.6 °C 21 °C 1016.5 hPa NNW 3.2 km/h 14.5 km/h 60% 0 mm 0 W/m2
20:40 29.5 °C 21.4 °C 1016.5 hPa North 1.6 km/h 12.9 km/h 62% 0 mm 0 W/m2
20:50 29.3 °C 21.3 °C 1016.5 hPa North 4.8 km/h 12.9 km/h 62% 0 mm 0 W/m2
21:00 29 °C 20.4 °C 1016.1 hPa North 3.2 km/h 14.5 km/h 60% 0 mm 0 W/m2
21:10 28.7 °C 19.8 °C 1016.1 hPa NNE 3.2 km/h 11.3 km/h 59% 0 mm 0 W/m2
21:20 28.4 °C 19.6 °C 1016.1 hPa NNE 4.8 km/h 8 km/h 59% 0 mm 0 W/m2
21:30 28.1 °C 19.3 °C 1016.1 hPa Calm   8 km/h 59% 0 mm 0 W/m2
21:40 27.8 °C 19.8 °C 1016.1 hPa East 1.6 km/h 4.8 km/h 62% 0 mm 0 W/m2
21:50 27.4 °C 19.7 °C 1015.8 hPa Calm   3.2 km/h 63% 0 mm 0 W/m2
22:00 27.1 °C 19.9 °C 1016.1 hPa WNW 3.2 km/h 6.4 km/h 65% 0 mm 0 W/m2
22:10 26.6 °C 20.2 °C 1016.1 hPa SSW 3.2 km/h 8 km/h 68% 0 mm 0 W/m2
22:20 26.2 °C 20.1 °C 1015.8 hPa WNW 1.6 km/h 4.8 km/h 69% 0 mm 0 W/m2
22:30 25.9 °C 19.8 °C 1016.1 hPa WSW 1.6 km/h 6.4 km/h 69% 0 mm 0 W/m2
22:40 25.3 °C 19.2 °C 1015.8 hPa WSW 3.2 km/h 4.8 km/h 69% 0 mm 0 W/m2
22:50 24.9 °C 19.1 °C 1015.8 hPa WSW 3.2 km/h 8 km/h 70% 0 mm 0 W/m2
23:00 24.3 °C 19.2 °C 1016.1 hPa West 8 km/h 12.9 km/h 73% 0 mm 0 W/m2
23:10 24 °C 19.1 °C 1016.1 hPa West 3.2 km/h 11.3 km/h 74% 0 mm 0 W/m2
23:20 23.9 °C 19.2 °C 1016.1 hPa West 3.2 km/h 8 km/h 75% 0 mm 0 W/m2
23:30 23.8 °C 19.1 °C 1016.5 hPa Calm   3.2 km/h 75% 0 mm 0 W/m2
23:40 23.7 °C 19 °C 1016.5 hPa NW 1.6 km/h 3.2 km/h 75% 0 mm 0 W/m2
Knjazevac, Serbia
Compliments of Weather Underground - 2 mb